Time;durP1;ratioP1;P1;durP2;ratioP2;P2;SDS_P1;SDS_P2;PMS_P1;PMS_P2;Temp;Humidity;BMP_temperature;BMP_pressure;BME280_temperature;BME280_humidity;BME280_pressure;Samples;Min_cycle;Max_cycle;Signal;HPM_P1;HPM_P2
2021/08/13 00:01:46;;;;;;;6.03;4.67;;;;;;;23.27;53.34;95419.69;6278826;22;20510;-85
2021/08/13 00:04:14;;;;;;;6.33;5.63;;;;;;;23.21;52.93;95417.78;6279007;22;20757;-86
2021/08/13 00:06:41;;;;;;;6.50;5.83;;;;;;;23.13;52.98;95413.41;6226792;22;20403;-86
2021/08/13 00:09:08;;;;;;;5.77;4.50;;;;;;;23.16;52.77;95417.56;6278989;22;20401;-85
2021/08/13 00:11:38;;;;;;;6.03;5.00;;;;;;;23.17;53.00;95411.19;6279406;22;20403;-85
2021/08/13 00:14:05;;;;;;;6.10;5.50;;;;;;;23.14;52.87;95416.91;6278896;22;20446;-86
2021/08/13 00:16:34;;;;;;;4.83;4.33;;;;;;;23.13;53.27;95413.41;6278651;22;20485;-86
2021/08/13 00:19:01;;;;;;;5.10;4.60;;;;;;;23.14;53.29;95411.56;6225628;22;20494;-85
2021/08/13 00:21:28;;;;;;;5.87;5.37;;;;;;;23.09;53.28;95403.28;6278567;22;20862;-86
2021/08/13 00:24:02;;;;;;;6.80;5.03;;;;;;;23.14;53.36;95406.22;6278438;22;20491;-85
2021/08/13 00:26:29;;;;;;;5.57;5.07;;;;;;;23.12;53.71;95410.91;6278493;22;20971;-85
2021/08/13 00:28:56;;;;;;;6.40;5.87;;;;;;;23.10;53.95;95405.75;6278458;22;20470;-85
2021/08/13 00:31:23;;;;;;;6.10;5.47;;;;;;;23.03;53.82;95414.75;6278702;22;20891;-85
2021/08/13 00:33:52;;;;;;;5.43;4.93;;;;;;;22.99;53.75;95405.47;6278314;22;20401;-85
2021/08/13 00:36:19;;;;;;;6.47;5.33;;;;;;;22.93;53.73;95406.25;6278772;22;20711;-86
2021/08/13 00:38:46;;;;;;;7.00;5.00;;;;;;;22.88;53.65;95403.31;6278745;22;20459;-86
2021/08/13 00:41:13;;;;;;;7.27;5.93;;;;;;;22.88;53.62;95408.69;6278220;22;20432;-86
2021/08/13 00:43:40;;;;;;;5.20;4.70;;;;;;;22.88;53.49;95404.16;6279225;22;20489;-85
2021/08/13 00:46:07;;;;;;;9.13;4.97;;;;;;;22.90;53.50;95412.00;6278660;22;20471;-86
2021/08/13 00:48:34;;;;;;;6.40;4.83;;;;;;;22.86;53.92;95416.91;6278707;22;20464;-86
2021/08/13 00:51:02;;;;;;;5.97;4.77;;;;;;;22.77;53.97;95416.16;6278263;22;20483;-85
2021/08/13 00:53:29;;;;;;;6.17;4.80;;;;;;;22.81;54.13;95421.97;6226014;22;20405;-85
2021/08/13 00:55:57;;;;;;;6.10;5.50;;;;;;;22.81;54.42;95430.00;6278057;22;20481;-85
2021/08/13 00:58:24;;;;;;;6.13;5.53;;;;;;;22.79;54.10;95430.16;6278269;22;20868;-86
2021/08/13 01:00:52;;;;;;;5.57;5.07;;;;;;;22.80;54.03;95431.81;6278659;22;20506;-86
2021/08/13 01:03:19;;;;;;;9.13;5.57;;;;;;;22.83;53.94;95431.47;6279073;22;20512;-86
2021/08/13 01:05:46;;;;;;;6.33;5.03;;;;;;;22.86;53.97;95432.97;6278450;22;20395;-85
2021/08/13 01:08:14;;;;;;;5.63;4.90;;;;;;;22.91;54.50;95443.09;6278572;22;20955;-85
2021/08/13 01:10:47;;;;;;;6.03;5.20;;;;;;;22.56;54.37;95446.44;6277789;22;20787;-86
2021/08/13 01:13:20;;;;;;;5.70;4.30;;;;;;;22.53;54.77;95451.31;6278949;22;20396;-85
2021/08/13 01:15:53;;;;;;;5.47;4.60;;;;;;;22.42;54.88;95439.28;6278030;22;20477;-85
2021/08/13 01:18:28;;;;;;;5.50;5.00;;;;;;;22.46;55.30;95443.22;6278232;22;20447;-85
2021/08/13 01:21:23;;;;;;;5.83;5.20;;;;;;;22.52;55.45;95441.63;6278274;22;20487;-85
2021/08/13 01:23:54;;;;;;;6.50;5.23;;;;;;;22.54;54.97;95436.91;6278751;22;20881;-85
2021/08/13 01:26:22;;;;;;;6.50;5.63;;;;;;;22.53;55.67;95444.13;6278268;22;20453;-85
2021/08/13 01:29:03;;;;;;;11.17;5.50;;;;;;;22.57;55.28;95441.91;6278255;22;20472;-85
2021/08/13 01:31:38;;;;;;;11.17;5.33;;;;;;;22.56;55.67;95430.38;6278118;22;20418;-85
2021/08/13 01:34:11;;;;;;;8.23;5.63;;;;;;;22.48;56.04;95440.34;6277852;22;20437;-85
2021/08/13 01:36:39;;;;;;;9.90;6.40;;;;;;;22.43;55.98;95440.09;6226736;22;20407;-85
2021/08/13 01:39:08;;;;;;;5.67;4.90;;;;;;;22.41;56.08;95436.78;6250260;22;20505;-85
2021/08/13 01:41:37;;;;;;;5.50;5.00;;;;;;;22.35;56.53;95442.91;6277962;22;20532;-85
2021/08/13 01:44:06;;;;;;;6.67;5.73;;;;;;;22.24;56.19;95446.88;6277754;22;20466;-84
2021/08/13 01:46:34;;;;;;;9.77;6.83;;;;;;;22.11;56.48;95450.25;6277662;22;20481;-85
2021/08/13 01:49:02;;;;;;;7.20;5.23;;;;;;;21.91;56.86;95455.28;6278165;22;20525;-85
2021/08/13 02:01:37;;;;;;;6.10;5.30;;;;;;;21.83;57.54;95443.88;6277292;22;20444;-85
2021/08/13 02:04:06;;;;;;;7.60;5.20;;;;;;;21.86;57.61;95446.19;6278949;22;20396;-85
2021/08/13 02:06:34;;;;;;;6.07;5.47;;;;;;;21.84;57.15;95432.19;6224683;22;20400;-85
2021/08/13 02:09:03;;;;;;;5.60;5.00;;;;;;;21.87;57.24;95442.50;6277387;22;20491;-85
2021/08/13 02:11:30;;;;;;;7.10;4.60;;;;;;;21.81;57.05;95438.72;6277774;22;20477;-85
2021/08/13 02:13:57;;;;;;;8.30;6.07;;;;;;;21.81;57.58;95448.59;6277737;22;20484;-85
2021/08/13 02:16:28;;;;;;;6.80;5.53;;;;;;;21.79;57.68;95442.59;6277871;22;20501;-85
2021/08/13 02:19:02;;;;;;;6.13;5.40;;;;;;;21.84;57.46;95443.69;6277297;22;20952;-85
2021/08/13 02:21:35;;;;;;;6.70;5.50;;;;;;;21.87;57.75;95445.16;6277069;22;20469;-86
2021/08/13 02:24:02;;;;;;;8.13;6.53;;;;;;;21.83;56.99;95433.19;6277271;22;20468;-85
2021/08/13 02:26:29;;;;;;;6.20;4.77;;;;;;;21.85;57.15;95447.19;6224743;22;20490;-84
2021/08/13 02:28:56;;;;;;;11.20;6.07;;;;;;;21.83;57.06;95444.72;6277560;22;20417;-85
2021/08/13 02:31:23;;;;;;;5.83;5.17;;;;;;;21.81;57.22;95448.59;6278070;22;20444;-85
2021/08/13 02:33:51;;;;;;;4.73;4.33;;;;;;;21.78;57.09;95440.94;6277122;22;20482;-85
2021/08/13 02:36:27;;;;;;;6.00;4.67;;;;;;;21.72;56.95;95436.34;6278087;22;20466;-86
2021/08/13 02:39:01;;;;;;;5.90;5.20;;;;;;;21.69;57.20;95436.72;6277566;22;20421;-85
2021/08/13 02:41:31;;;;;;;5.43;4.93;;;;;;;21.72;57.65;95441.69;6277105;22;20461;-85
2021/08/13 02:44:02;;;;;;;6.00;5.37;;;;;;;21.73;57.24;95433.50;6224182;22;20412;-86
2021/08/13 02:46:33;;;;;;;7.00;5.50;;;;;;;21.67;57.28;95447.56;6224326;22;20400;-86
2021/08/13 02:49:01;;;;;;;6.00;5.40;;;;;;;21.60;57.41;95452.81;6277440;22;20408;-85
2021/08/13 02:51:33;;;;;;;6.37;5.77;;;;;;;21.61;57.76;95445.63;6277347;22;20489;-85
2021/08/13 02:54:02;;;;;;;5.67;5.13;;;;;;;21.48;57.43;95451.63;6277460;22;20424;-85
2021/08/13 02:56:31;;;;;;;11.93;5.90;;;;;;;21.48;57.65;95451.63;6277045;22;20490;-85
2021/08/13 02:59:03;;;;;;;5.37;4.87;;;;;;;21.49;57.98;95461.31;6249359;22;20910;-85
2021/08/13 03:01:32;;;;;;;5.20;4.70;;;;;;;21.48;57.80;95458.81;6276978;22;20531;-85
2021/08/13 03:04:00;;;;;;;7.73;5.33;;;;;;;21.42;57.33;95455.03;6277216;22;20435;-85
2021/08/13 03:06:32;;;;;;;7.50;4.87;;;;;;;21.47;57.45;95463.34;6277322;22;20477;-85
2021/08/13 03:09:01;;;;;;;7.80;5.60;;;;;;;21.43;57.74;95461.22;6277671;22;20479;-85
2021/08/13 03:11:29;;;;;;;9.53;5.00;;;;;;;21.41;57.79;95472.09;6280489;22;20436;-86
2021/08/13 03:13:56;;;;;;;7.73;5.13;;;;;;;21.40;57.78;95469.59;6228755;22;20433;-85
2021/08/13 03:16:23;;;;;;;6.93;4.87;;;;;;;21.40;57.69;95475.75;6224525;22;20469;-85
2021/08/13 03:18:51;;;;;;;6.20;5.37;;;;;;;21.34;58.22;95469.28;6276768;22;20464;-85
2021/08/13 03:21:18;;;;;;;6.00;5.20;;;;;;;21.28;58.44;95478.03;6277403;22;20519;-85
2021/08/13 03:23:47;;;;;;;7.37;5.60;;;;;;;21.28;57.85;95472.69;6277227;22;20409;-86
2021/08/13 03:26:14;;;;;;;6.60;5.90;;;;;;;21.23;57.51;95477.75;6277216;22;20481;-86
2021/08/13 03:28:41;;;;;;;5.43;4.40;;;;;;;21.24;58.21;95468.72;6224109;22;20390;-86
2021/08/13 03:31:08;;;;;;;5.00;4.50;;;;;;;21.20;57.95;95469.25;6276664;22;20472;-86
2021/08/13 03:33:35;;;;;;;8.73;5.80;;;;;;;21.19;58.14;95465.75;6223858;22;20503;-86
2021/08/13 03:36:02;;;;;;;5.43;4.97;;;;;;;21.21;58.02;95471.72;6276690;22;20391;-85
2021/08/13 03:38:29;;;;;;;6.00;5.40;;;;;;;21.22;57.91;95467.22;6224339;22;20480;-86
2021/08/13 03:40:58;;;;;;;5.63;5.13;;;;;;;21.21;57.55;95471.72;6276636;22;20507;-85
2021/08/13 03:43:25;;;;;;;7.47;5.10;;;;;;;21.27;57.60;95470.19;6277165;22;20472;-86
2021/08/13 03:45:51;;;;;;;5.43;4.93;;;;;;;21.28;57.13;95467.34;6276726;22;20469;-85
2021/08/13 03:48:18;;;;;;;5.10;4.70;;;;;;;21.29;56.95;95469.00;6277081;22;20412;-85
2021/08/13 03:50:45;;;;;;;5.90;5.30;;;;;;;21.30;57.11;95470.66;6223999;22;20432;-86
2021/08/13 03:53:12;;;;;;;7.53;5.80;;;;;;;21.32;56.78;95465.97;6276989;22;20492;-86
2021/08/13 03:55:39;;;;;;;5.07;4.60;;;;;;;21.32;56.98;95471.31;6276682;22;20853;-86
2021/08/13 03:58:07;;;;;;;8.07;5.57;;;;;;;21.37;56.59;95475.28;6223687;22;20438;-86
2021/08/13 04:00:34;;;;;;;6.30;5.27;;;;;;;21.48;57.19;95475.66;6276825;22;20519;-85
2021/08/13 04:03:01;;;;;;;6.00;5.50;;;;;;;21.54;56.68;95472.25;6276451;22;20511;-85
2021/08/13 04:05:30;;;;;;;6.60;5.50;;;;;;;21.58;56.78;95481.56;6276573;22;20476;-86
2021/08/13 04:07:57;;;;;;;7.53;5.50;;;;;;;21.74;56.53;95479.75;6276452;22;20856;-85
2021/08/13 04:10:24;;;;;;;11.43;5.23;;;;;;;22.19;55.84;95479.53;6276864;22;20470;-85
2021/08/13 04:12:51;;;;;;;5.83;4.97;;;;;;;22.73;53.58;95472.94;6223730;22;20494;-86
2021/08/13 04:15:19;;;;;;;5.67;5.07;;;;;;;23.34;52.12;95482.16;6276521;22;20475;-85
2021/08/13 04:17:48;;;;;;;7.13;5.10;;;;;;;24.06;51.77;95476.47;6277036;22;20477;-88
2021/08/13 04:20:15;;;;;;;5.53;5.10;;;;;;;25.56;49.33;95484.25;6276425;22;20855;-87
2021/08/13 04:22:42;;;;;;;6.00;5.47;;;;;;;26.39;45.22;95481.81;6276979;22;20396;-88
2021/08/13 04:25:10;;;;;;;5.20;4.40;;;;;;;26.85;42.26;95475.34;6277035;22;20392;-88
2021/08/13 04:27:37;;;;;;;5.90;5.30;;;;;;;27.38;42.28;95480.41;6276614;22;20484;-88
2021/08/13 04:30:05;;;;;;;6.10;4.83;;;;;;;27.61;41.10;95483.31;6276437;22;20426;-88
2021/08/13 04:32:37;;;;;;;10.57;5.20;;;;;;;27.77;41.72;95484.66;6276552;22;20421;-88
2021/08/13 04:35:05;;;;;;;11.03;6.20;;;;;;;27.10;42.56;95489.72;6276644;22;20487;-84
2021/08/13 04:37:36;;;;;;;9.60;6.07;;;;;;;27.14;42.95;95493.63;6276835;22;20454;-84
2021/08/13 04:40:03;;;;;;;12.33;5.93;;;;;;;27.03;43.05;95497.03;6276486;22;20476;-84
2021/08/13 04:42:30;;;;;;;24.40;6.37;;;;;;;26.91;44.58;95497.94;6275910;22;20520;-85
2021/08/13 04:44:57;;;;;;;16.97;9.30;;;;;;;27.09;45.05;95500.72;6275982;22;20467;-84
2021/08/13 04:47:24;;;;;;;12.43;7.00;;;;;;;27.10;44.81;95497.00;6277806;22;20475;-83
2021/08/13 05:14:23;;;;;;;5.70;5.10;;;;;;;29.64;38.96;95487.44;6276497;22;20474;-88
2021/08/13 05:16:50;;;;;;;5.50;4.63;;;;;;;29.52;37.10;95485.56;6277510;22;20459;-87
2021/08/13 05:19:17;;;;;;;10.43;4.90;;;;;;;29.56;38.08;95494.03;6277339;22;20399;-87
2021/08/13 05:21:44;;;;;;;5.23;4.73;;;;;;;29.89;36.92;95496.16;6277648;22;20436;-87
2021/08/13 05:24:11;;;;;;;9.87;4.90;;;;;;;30.28;39.00;95504.63;6278045;22;20424;-87
2021/08/13 05:33:29;;;;;;;9.33;4.60;;;;;;;30.99;34.79;95506.94;6277779;22;20411;-82
2021/08/13 05:35:56;;;;;;;13.40;5.53;;;;;;;31.04;34.58;95511.63;6278166;22;20432;-84
2021/08/13 05:38:23;;;;;;;6.10;5.00;;;;;;;30.88;34.88;95501.56;6278169;22;20468;-84
2021/08/13 05:40:50;;;;;;;12.30;6.20;;;;;;;30.68;34.75;95499.28;6277475;22;20475;-84
2021/08/13 05:43:17;;;;;;;6.77;5.80;;;;;;;30.47;36.10;95506.13;6278216;22;20472;-84
2021/08/13 05:49:07;;;;;;;6.10;5.57;;;;;;;29.49;39.16;95507.69;6278565;22;20883;-84
2021/08/13 05:51:34;;;;;;;10.97;6.53;;;;;;;28.64;39.52;95510.50;6277885;22;20483;-82
2021/08/13 05:54:01;;;;;;;9.60;5.87;;;;;;;28.76;39.46;95507.03;6277693;22;20476;-84
2021/08/13 05:56:28;;;;;;;5.93;5.40;;;;;;;28.81;38.95;95509.84;6282871;22;20428;-82
2021/08/13 05:59:00;;;;;;;10.23;6.17;;;;;;;28.81;38.96;95510.69;6277166;22;20488;-83
2021/08/13 06:15:20;;;;;;;13.17;6.57;;;;;;;28.89;38.96;95525.78;6273168;22;20410;-82
2021/08/13 06:17:48;;;;;;;7.77;5.37;;;;;;;29.24;37.44;95520.53;6246192;23;20381;-83
2021/08/13 06:20:17;;;;;;;10.07;5.93;;;;;;;29.43;36.72;95516.66;6246527;23;20390;-83
2021/08/13 06:22:44;;;;;;;6.30;5.70;;;;;;;29.42;35.89;95517.72;6245959;23;20511;-83
2021/08/13 06:25:12;;;;;;;7.13;5.30;;;;;;;29.53;36.46;95518.84;6246711;23;20392;-83
2021/08/13 06:27:41;;;;;;;6.50;5.83;;;;;;;29.48;38.11;95524.94;6246295;23;20464;-83
2021/08/13 06:30:10;;;;;;;6.33;5.63;;;;;;;29.04;38.96;95522.69;6246003;23;20397;-83
2021/08/13 06:32:39;;;;;;;5.90;5.40;;;;;;;29.13;38.21;95524.00;6246373;23;20417;-83
2021/08/13 06:35:07;;;;;;;9.93;6.17;;;;;;;29.44;37.82;95526.47;6246771;23;20476;-83
2021/08/13 06:37:43;;;;;;;7.40;5.10;;;;;;;29.54;38.27;95524.03;6194094;23;20398;-83
2021/08/13 06:40:11;;;;;;;7.83;6.20;;;;;;;29.69;37.79;95518.16;6246779;22;20491;-82
2021/08/13 06:42:38;;;;;;;6.90;6.10;;;;;;;29.88;37.20;95513.47;6245886;23;20465;-83
2021/08/13 06:45:06;;;;;;;12.93;6.30;;;;;;;30.21;36.94;95521.00;6245461;23;20393;-83
2021/08/13 06:47:33;;;;;;;8.97;5.80;;;;;;;30.29;37.24;95512.53;6246396;23;20425;-83
2021/08/13 06:53:29;;;;;;;9.43;6.97;;;;;;;30.62;35.73;95517.31;6246499;23;20366;-83
2021/08/13 06:55:56;;;;;;;27.73;8.47;;;;;;;30.65;36.11;95521.41;6246196;23;20477;-83
2021/08/13 06:58:23;;;;;;;9.47;6.30;;;;;;;30.45;35.93;95535.34;6168293;23;20408;-83
2021/08/13 07:00:52;;;;;;;8.33;5.60;;;;;;;30.02;36.65;95522.97;6245013;22;20964;-82
2021/08/13 07:03:19;;;;;;;9.50;6.13;;;;;;;29.85;37.41;95528.28;6246760;23;20397;-83
2021/08/13 07:05:46;;;;;;;14.10;6.87;;;;;;;29.94;37.10;95525.22;6245986;23;20402;-82
2021/08/13 07:08:14;;;;;;;20.17;7.20;;;;;;;30.10;37.43;95528.09;6193483;23;20480;-83
2021/08/13 07:10:42;;;;;;;10.20;6.63;;;;;;;30.04;37.51;95529.00;6245477;23;20421;-83
2021/08/13 07:13:09;;;;;;;13.67;6.60;;;;;;;30.15;38.38;95522.78;6245082;23;20481;-82
2021/08/13 07:15:36;;;;;;;19.93;6.07;;;;;;;30.32;37.23;95522.88;6248857;22;20480;-83
2021/08/13 07:24:47;;;;;;;7.97;5.40;;;;;;;30.73;35.08;95519.19;6274751;22;20445;-82
2021/08/13 07:27:15;;;;;;;8.53;5.53;;;;;;;30.88;33.49;95517.81;6248453;22;20486;-82
2021/08/13 07:29:42;;;;;;;7.13;5.73;;;;;;;31.14;33.33;95514.53;6223293;22;20428;-82
2021/08/13 07:32:09;;;;;;;8.10;5.30;;;;;;;31.13;33.96;95513.69;6276524;22;20769;-84
2021/08/13 07:34:36;;;;;;;8.00;5.20;;;;;;;31.36;32.94;95514.69;6274649;22;21296;-82
2021/08/13 07:37:03;;;;;;;8.10;5.40;;;;;;;31.49;35.33;95510.81;6275091;22;20451;-85
2021/08/13 07:39:30;;;;;;;5.53;5.03;;;;;;;31.57;32.95;95510.44;6275849;22;20487;-84
2021/08/13 07:41:57;;;;;;;6.60;5.83;;;;;;;31.66;32.07;95500.81;6222769;22;20813;-89
2021/08/13 07:44:26;;;;;;;5.43;4.93;;;;;;;31.83;31.74;95509.00;6275276;22;20431;-83
2021/08/13 07:46:52;;;;;;;12.53;5.20;;;;;;;31.79;31.39;95503.22;6221191;22;20405;-85
2021/08/13 07:49:19;;;;;;;9.60;5.13;;;;;;;31.77;30.38;95507.25;6222590;22;20479;-81
2021/08/13 07:51:46;;;;;;;5.17;4.60;;;;;;;31.61;30.77;95498.03;6274987;22;20404;-80
2021/08/13 07:54:13;;;;;;;6.80;4.93;;;;;;;31.59;31.11;95497.44;6276009;22;20483;-81
2021/08/13 07:56:40;;;;;;;4.93;4.53;;;;;;;31.72;30.53;95502.56;6276985;22;20485;-80
2021/08/13 07:59:07;;;;;;;4.87;4.43;;;;;;;31.71;30.90;95503.63;6276532;22;20476;-80
2021/08/13 08:01:35;;;;;;;6.37;4.90;;;;;;;31.64;31.42;95505.66;6276200;22;21014;-81
2021/08/13 08:04:02;;;;;;;11.30;4.63;;;;;;;31.55;30.73;95507.97;6276269;22;20464;-81
2021/08/13 08:06:31;;;;;;;9.53;5.90;;;;;;;31.52;31.62;95507.66;6275647;22;20431;-80
2021/08/13 08:08:58;;;;;;;20.80;5.03;;;;;;;31.71;30.82;95509.06;6275665;22;20887;-80
2021/08/13 08:11:25;;;;;;;9.50;4.60;;;;;;;31.90;30.80;95512.34;6275631;22;20491;-81
2021/08/13 08:13:53;;;;;;;6.07;4.70;;;;;;;32.08;30.70;95506.63;6274859;22;20475;-81
2021/08/13 08:16:20;;;;;;;9.60;4.97;;;;;;;32.23;30.41;95509.59;6218318;22;20495;-80
2021/08/13 08:18:48;;;;;;;4.73;4.17;;;;;;;32.05;29.50;95510.66;6273498;22;20476;-81
2021/08/13 08:21:15;;;;;;;3.93;3.63;;;;;;;32.11;28.78;95521.63;6274083;22;20415;-80
2021/08/13 08:23:42;;;;;;;4.63;4.23;;;;;;;32.07;28.71;95521.28;6277928;22;20413;-81
2021/08/13 08:26:09;;;;;;;6.30;4.50;;;;;;;32.22;29.90;95518.81;6278127;22;20821;-80
2021/08/13 08:28:41;;;;;;;6.90;4.60;;;;;;;32.35;29.52;95517.63;6278058;22;20395;-81
2021/08/13 08:31:08;;;;;;;9.77;5.30;;;;;;;32.47;29.36;95521.09;6278414;22;20451;-81
2021/08/13 08:33:35;;;;;;;13.77;5.67;;;;;;;32.59;29.15;95512.78;6277051;22;20436;-81
2021/08/13 08:36:04;;;;;;;5.43;4.93;;;;;;;32.66;29.83;95516.13;6277318;22;20479;-81
2021/08/13 08:38:31;;;;;;;5.40;4.90;;;;;;;32.56;29.08;95514.13;6278279;22;20467;-80
2021/08/13 08:41:02;;;;;;;9.73;5.53;;;;;;;32.62;29.46;95515.00;6278060;22;20439;-80
2021/08/13 08:43:29;;;;;;;7.57;5.50;;;;;;;32.61;30.04;95516.91;6277928;22;20428;-81
2021/08/13 08:45:57;;;;;;;5.23;4.73;;;;;;;32.53;30.35;95503.75;6223736;22;20475;-81
2021/08/13 08:48:26;;;;;;;6.90;5.67;;;;;;;32.30;29.88;95518.41;6277956;22;20444;-80
2021/08/13 08:50:53;;;;;;;7.03;5.03;;;;;;;32.34;29.71;95511.38;6277441;22;20400;-81
2021/08/13 08:53:24;;;;;;;7.00;5.30;;;;;;;32.37;29.99;95515.50;6275569;22;20920;-81
2021/08/13 08:55:51;;;;;;;10.80;5.47;;;;;;;32.30;30.55;95510.25;6275508;22;20960;-82
2021/08/13 08:58:20;;;;;;;5.47;4.77;;;;;;;32.34;31.10;95510.56;6274515;22;20795;-82
2021/08/13 09:00:47;;;;;;;8.03;5.23;;;;;;;32.23;30.47;95506.88;6276419;22;20476;-82
2021/08/13 09:03:15;;;;;;;5.83;5.33;;;;;;;32.20;31.37;95506.53;6277013;22;20451;-83
2021/08/13 09:05:42;;;;;;;5.93;5.40;;;;;;;32.36;31.61;95508.41;6276895;22;21212;-81
2021/08/13 09:08:09;;;;;;;5.40;4.90;;;;;;;32.39;31.67;95493.53;6225318;22;20463;-81
2021/08/13 09:10:38;;;;;;;7.37;5.90;;;;;;;32.09;31.27;95504.75;6277697;22;20403;-81
2021/08/13 09:13:05;;;;;;;5.73;5.23;;;;;;;31.94;30.87;95503.47;6278818;22;20483;-81
2021/08/13 09:15:34;;;;;;;7.33;5.90;;;;;;;31.85;30.82;95496.81;6275577;22;20484;-81
2021/08/13 09:18:12;;;;;;;6.30;5.57;;;;;;;31.70;31.36;95499.25;6275198;22;20401;-81
2021/08/13 09:20:40;;;;;;;10.50;6.40;;;;;;;31.70;31.04;95491.09;6275348;22;20400;-81
2021/08/13 09:23:07;;;;;;;7.23;5.87;;;;;;;31.43;31.59;95494.47;6221507;22;20432;-81
2021/08/13 09:25:34;;;;;;;8.00;5.77;;;;;;;31.46;31.95;95500.47;6274649;22;20484;-81
2021/08/13 09:28:03;;;;;;;7.00;5.73;;;;;;;31.59;31.03;95497.44;6222549;22;20471;-81
2021/08/13 09:30:30;;;;;;;6.93;5.47;;;;;;;31.70;32.04;95499.25;6274865;22;20411;-81
2021/08/13 09:32:59;;;;;;;5.53;5.03;;;;;;;31.88;32.46;95498.22;6276291;22;20484;-81
2021/08/13 09:35:38;;;;;;;9.33;5.80;;;;;;;31.87;31.24;95496.56;6248725;22;20393;-82
2021/08/13 09:38:11;;;;;;;5.40;5.00;;;;;;;31.95;31.56;95496.97;6277061;22;20410;-81
2021/08/13 09:40:39;;;;;;;6.77;6.17;;;;;;;31.99;31.04;95500.81;6276714;22;20412;-82
2021/08/13 09:43:08;;;;;;;6.90;5.37;;;;;;;32.09;30.74;95499.31;6276623;22;20857;-82
2021/08/13 09:45:35;;;;;;;6.40;5.80;;;;;;;32.06;31.48;95495.19;6276638;22;20484;-81
2021/08/13 09:48:03;;;;;;;5.87;5.27;;;;;;;32.21;31.08;95498.16;6223175;22;20492;-84
2021/08/13 09:50:38;;;;;;;6.00;5.37;;;;;;;32.26;31.82;95489.28;6276864;22;20488;-82
2021/08/13 09:53:07;;;;;;;6.07;5.57;;;;;;;32.33;32.75;95495.34;6276687;22;20491;-82
2021/08/13 09:55:35;;;;;;;9.63;5.63;;;;;;;32.42;30.40;95496.56;6276700;22;20423;-82
2021/08/13 09:58:02;;;;;;;6.23;5.30;;;;;;;32.48;30.32;95492.84;6276770;22;20404;-82
2021/08/13 10:00:43;;;;;;;8.53;6.23;;;;;;;32.42;30.29;95491.13;6276659;22;20807;-82
2021/08/13 10:03:10;;;;;;;15.53;8.50;;;;;;;32.31;30.87;95495.59;6276545;22;20528;-82
2021/08/13 10:05:37;;;;;;;6.40;5.80;;;;;;;32.31;31.22;95494.78;6276332;22;20401;-82
2021/08/13 10:08:07;;;;;;;7.67;6.30;;;;;;;32.30;31.23;95488.50;6276286;22;20441;-82
2021/08/13 10:10:35;;;;;;;6.20;4.80;;;;;;;32.32;31.49;95488.25;6276704;22;20491;-82
2021/08/13 10:13:04;;;;;;;7.07;6.23;;;;;;;32.42;30.48;95487.59;6276658;22;20511;-82
2021/08/13 10:15:34;;;;;;;8.57;5.97;;;;;;;32.42;31.57;95488.41;6275875;22;20444;-82
2021/08/13 10:18:02;;;;;;;6.50;5.90;;;;;;;32.47;30.98;95485.75;6275967;22;20814;-82
2021/08/13 10:20:30;;;;;;;8.77;6.27;;;;;;;32.35;30.60;95482.31;6276135;22;20452;-81
2021/08/13 10:22:58;;;;;;;7.87;5.63;;;;;;;32.22;32.60;95488.94;6276403;22;20490;-82
2021/08/13 10:25:25;;;;;;;8.60;5.50;;;;;;;32.10;32.09;95492.84;6276508;22;20487;-82
2021/08/13 10:27:53;;;;;;;7.07;5.50;;;;;;;31.78;30.63;95488.00;6276294;22;20476;-82
2021/08/13 10:30:21;;;;;;;5.97;5.47;;;;;;;31.84;32.26;95487.03;6276579;22;20400;-81
2021/08/13 10:32:56;;;;;;;6.27;5.77;;;;;;;31.64;32.16;95481.25;6277777;22;20455;-82
2021/08/13 10:35:25;;;;;;;9.47;6.10;;;;;;;31.29;31.89;95485.00;6277398;22;20397;-81
2021/08/13 10:37:53;;;;;;;10.60;6.40;;;;;;;31.17;32.31;95481.53;6277446;22;20488;-81
2021/08/13 10:40:20;;;;;;;7.30;6.13;;;;;;;30.80;33.03;95490.03;6277760;22;20425;-81
2021/08/13 10:42:50;;;;;;;6.57;5.97;;;;;;;30.95;33.35;95486.81;6223847;22;20468;-81
2021/08/13 10:45:22;;;;;;;6.80;6.00;;;;;;;31.16;33.27;95485.31;6277502;22;20555;-81
2021/08/13 10:47:58;;;;;;;11.17;6.33;;;;;;;31.23;33.29;95485.19;6278109;22;20443;-81
2021/08/13 10:50:25;;;;;;;10.07;6.57;;;;;;;31.26;32.34;95482.78;6277840;22;20396;-82
2021/08/13 10:52:52;;;;;;;6.20;5.60;;;;;;;31.27;33.43;95483.63;6277391;22;20491;-81
2021/08/13 10:55:47;;;;;;;7.87;6.50;;;;;;;31.29;32.93;95479.59;6277754;22;20400;-81
2021/08/13 10:58:34;;;;;;;6.90;5.40;;;;;;;31.34;32.60;95473.41;6279019;22;20745;-81
2021/08/13 11:01:06;;;;;;;8.50;5.73;;;;;;;31.19;33.29;95471.25;6277593;22;20430;-80
2021/08/13 11:03:35;;;;;;;8.17;5.10;;;;;;;31.17;32.79;95470.69;6277466;22;20489;-80
2021/08/13 11:06:02;;;;;;;6.83;6.17;;;;;;;31.12;32.63;95470.56;6224518;22;20826;-80
2021/08/13 11:09:01;;;;;;;6.67;6.00;;;;;;;31.17;32.80;95464.44;6277045;22;20432;-80
2021/08/13 11:12:04;;;;;;;7.07;6.37;;;;;;;31.41;32.74;95461.34;6277344;22;20407;-80
2021/08/13 11:14:33;;;;;;;8.80;5.83;;;;;;;31.63;31.99;95455.19;6277754;22;20527;-80
2021/08/13 11:17:01;;;;;;;8.60;6.50;;;;;;;31.63;32.37;95457.88;6277111;22;20760;-80
2021/08/13 11:19:59;;;;;;;6.53;6.03;;;;;;;31.43;32.80;95448.34;6277541;22;20401;-80
2021/08/13 11:22:31;;;;;;;6.90;6.30;;;;;;;31.36;32.58;95447.69;6276770;22;20487;-81
2021/08/13 11:24:58;;;;;;;7.23;5.47;;;;;;;31.46;32.38;95446.22;6277511;22;20761;-80
2021/08/13 11:27:25;;;;;;;6.87;5.70;;;;;;;31.65;32.85;95451.13;6277220;22;20694;-80
2021/08/13 11:29:52;;;;;;;6.20;5.60;;;;;;;31.65;32.63;95450.31;6277551;22;20479;-80
2021/08/13 11:32:25;;;;;;;9.57;6.07;;;;;;;31.34;32.15;95438.16;6276756;22;20791;-81
2021/08/13 11:34:55;;;;;;;6.63;5.93;;;;;;;31.37;32.88;95438.50;6277537;22;20472;-81
2021/08/13 11:37:50;;;;;;;9.50;6.40;;;;;;;31.24;33.20;95438.81;6277467;22;20407;-80
2021/08/13 11:40:50;;;;;;;12.60;6.40;;;;;;;31.43;32.26;95431.25;6277039;22;20432;-81
2021/08/13 11:43:19;;;;;;;6.87;6.23;;;;;;;31.34;31.95;95438.16;6276967;22;20475;-80
2021/08/13 11:45:48;;;;;;;10.27;6.00;;;;;;;31.33;32.89;95434.63;6276808;22;20391;-81
2021/08/13 11:48:16;;;;;;;7.20;6.07;;;;;;;31.44;33.79;95433.72;6277423;22;20413;-80
2021/08/13 11:50:45;;;;;;;8.30;6.20;;;;;;;31.36;31.69;95426.00;6277437;22;20496;-80
2021/08/13 11:53:12;;;;;;;7.73;6.47;;;;;;;31.28;32.35;95429.13;6224253;22;20480;-80
2021/08/13 11:55:41;;;;;;;7.20;6.50;;;;;;;31.40;32.13;95438.00;6279533;22;20432;-80
2021/08/13 11:58:21;;;;;;;8.87;6.37;;;;;;;31.27;31.98;95424.78;6226878;22;20399;-80
2021/08/13 12:00:48;;;;;;;9.87;6.50;;;;;;;31.37;32.29;95422.22;6280639;22;20396;-80
2021/08/13 12:03:15;;;;;;;6.20;5.37;;;;;;;31.34;31.84;95421.88;6280159;22;20523;-82
2021/08/13 12:05:44;;;;;;;7.20;6.50;;;;;;;31.33;31.66;95421.06;6227795;22;20479;-83
2021/08/13 12:08:14;;;;;;;7.37;6.47;;;;;;;31.53;31.92;95419.75;6280707;22;20439;-83
2021/08/13 12:10:46;;;;;;;6.30;5.70;;;;;;;31.60;31.48;95413.06;6280233;22;20401;-79
2021/08/13 12:13:13;;;;;;;6.70;6.10;;;;;;;31.70;31.16;95415.94;6281108;22;20416;-82
2021/08/13 12:15:42;;;;;;;7.10;6.13;;;;;;;31.69;32.53;95417.00;6279875;22;20432;-84
2021/08/13 12:18:09;;;;;;;6.80;6.20;;;;;;;31.67;31.17;95410.19;6288797;22;20413;-81
2021/08/13 12:20:39;;;;;;;7.77;5.40;;;;;;;31.77;32.19;95404.91;6227167;22;20472;-82
2021/08/13 12:23:08;;;;;;;6.73;5.67;;;;;;;31.93;31.58;95409.50;6280595;22;20519;-82
2021/08/13 12:25:38;;;;;;;7.77;6.13;;;;;;;31.99;30.59;95408.50;6279730;22;20473;-82
2021/08/13 12:28:07;;;;;;;8.33;5.50;;;;;;;31.79;31.11;95408.22;6227607;22;20412;-81
2021/08/13 12:30:34;;;;;;;6.80;5.60;;;;;;;31.77;31.00;95404.91;6280052;22;20885;-81
2021/08/13 12:33:04;;;;;;;6.00;5.53;;;;;;;31.80;32.23;95415.28;6279782;22;20781;-81
2021/08/13 12:35:39;;;;;;;6.03;5.47;;;;;;;31.84;31.41;95394.72;6280263;22;20861;-81
2021/08/13 12:38:07;;;;;;;6.87;5.80;;;;;;;31.84;33.01;95407.47;6279541;22;20475;-82
2021/08/13 12:40:43;;;;;;;7.33;6.50;;;;;;;31.80;32.52;95399.00;6280276;22;20404;-82
2021/08/13 12:43:11;;;;;;;9.73;6.50;;;;;;;31.74;30.86;95400.81;6279554;22;20522;-82
2021/08/13 12:45:38;;;;;;;8.77;5.90;;;;;;;31.84;30.94;95392.00;6280560;22;20693;-81
2021/08/13 12:48:06;;;;;;;7.00;6.40;;;;;;;31.96;31.79;95395.44;6280065;22;20408;-81
2021/08/13 12:50:33;;;;;;;9.20;6.47;;;;;;;31.95;31.03;95388.34;6226096;22;20472;-81